Time;durP1;ratioP1;P1;durP2;ratioP2;P2;SDS_P1;SDS_P2;PMS_P1;PMS_P2;Temp;Humidity;BMP_temperature;BMP_pressure;BME280_temperature;BME280_humidity;BME280_pressure;Samples;Min_cycle;Max_cycle;Signal;HPM_P1;HPM_P2
2022/08/27 00:01:07;;;;;;;18.98;13.90;;;;;;;;;;5053755;28;20017;-60
2022/08/27 00:03:33;;;;;;;20.23;14.38;;;;;;;;;;5053869;28;20029;-60
2022/08/27 00:05:59;;;;;;;32.00;19.15;;;;;;;;;;5052337;28;20025;-60
2022/08/27 00:08:25;;;;;;;24.17;16.10;;;;;;;;;;5053601;28;20029;-60
2022/08/27 00:10:51;;;;;;;19.23;14.73;;;;;;;;;;5053028;28;20036;-60
2022/08/27 00:13:17;;;;;;;25.77;15.20;;;;;;;;;;5053627;28;20476;-60
2022/08/27 00:15:43;;;;;;;19.10;13.68;;;;;;;;;;5053740;28;20105;-60
2022/08/27 00:18:09;;;;;;;21.00;15.63;;;;;;;;;;5053595;28;20434;-60
2022/08/27 00:20:35;;;;;;;22.67;15.57;;;;;;;;;;5051838;28;20056;-60
2022/08/27 00:23:01;;;;;;;20.58;15.57;;;;;;;;;;5053446;28;20082;-60
2022/08/27 00:25:28;;;;;;;24.77;16.65;;;;;;;;;;5053347;28;20029;-60
2022/08/27 00:27:53;;;;;;;23.35;15.82;;;;;;;;;;5044306;28;20028;-60
2022/08/27 00:30:21;;;;;;;27.65;18.30;;;;;;;;;;5053157;28;20140;-60
2022/08/27 00:32:47;;;;;;;24.30;15.70;;;;;;;;;;5053524;28;20021;-60
2022/08/27 00:35:14;;;;;;;31.52;19.00;;;;;;;;;;5050475;28;20100;-61
2022/08/27 00:37:41;;;;;;;28.77;18.77;;;;;;;;;;5050505;28;20025;-60
2022/08/27 00:40:08;;;;;;;23.30;16.33;;;;;;;;;;5052097;28;20033;-60
2022/08/27 00:42:34;;;;;;;22.33;16.70;;;;;;;;;;5053202;28;20113;-60
2022/08/27 00:45:00;;;;;;;27.80;17.77;;;;;;;;;;5051766;28;20532;-60
2022/08/27 00:47:28;;;;;;;26.48;17.25;;;;;;;;;;5052399;28;20029;-60
2022/08/27 00:50:00;;;;;;;24.77;16.08;;;;;;;;;;5052741;28;20031;-60
2022/08/27 00:52:28;;;;;;;26.93;18.40;;;;;;;;;;5052953;28;20091;-60
2022/08/27 00:54:58;;;;;;;25.77;17.45;;;;;;;;;;5050260;28;20064;-60
2022/08/27 00:57:25;;;;;;;25.77;15.88;;;;;;;;;;5039601;28;20029;-60
2022/08/27 00:59:51;;;;;;;23.27;16.73;;;;;;;;;;5052491;28;20128;-60
2022/08/27 01:02:17;;;;;;;20.20;15.43;;;;;;;;;;5053263;28;20029;-63
2022/08/27 01:04:50;;;;;;;27.35;17.50;;;;;;;;;;5052519;28;20457;-62
2022/08/27 01:07:16;;;;;;;28.67;16.73;;;;;;;;;;5040570;28;20032;-62
2022/08/27 01:09:43;;;;;;;25.60;16.85;;;;;;;;;;5049938;28;20041;-62
2022/08/27 01:12:10;;;;;;;27.65;17.50;;;;;;;;;;5052569;28;20029;-62
2022/08/27 01:14:36;;;;;;;28.95;17.02;;;;;;;;;;5052552;28;20594;-62
2022/08/27 01:17:02;;;;;;;30.23;19.45;;;;;;;;;;5051379;28;20071;-63
2022/08/27 01:19:40;;;;;;;21.65;16.10;;;;;;;;;;5052116;28;20033;-62
2022/08/27 01:22:12;;;;;;;28.02;17.67;;;;;;;;;;5051424;28;20461;-62
2022/08/27 01:24:40;;;;;;;26.40;17.15;;;;;;;;;;5050909;28;20025;-62
2022/08/27 01:27:07;;;;;;;26.45;16.92;;;;;;;;;;5052024;28;20047;-62
2022/08/27 01:29:34;;;;;;;22.88;16.50;;;;;;;;;;5052045;28;20040;-62
2022/08/27 01:32:05;;;;;;;31.80;20.35;;;;;;;;;;5051862;28;20029;-62
2022/08/27 01:34:31;;;;;;;23.35;17.08;;;;;;;;;;5052408;28;20031;-63
2022/08/27 01:36:57;;;;;;;27.33;18.45;;;;;;;;;;5050554;28;20174;-62
2022/08/27 01:39:23;;;;;;;23.67;15.73;;;;;;;;;;5052129;28;20370;-63
2022/08/27 01:41:50;;;;;;;25.52;17.23;;;;;;;;;;5051801;28;20027;-62
2022/08/27 01:44:16;;;;;;;23.13;16.23;;;;;;;;;;5050173;28;20033;-62
2022/08/27 01:46:42;;;;;;;23.67;16.15;;;;;;;;;;5051875;28;20443;-62
2022/08/27 01:49:09;;;;;;;22.92;14.68;;;;;;;;;;5051833;28;20036;-63
2022/08/27 01:51:35;;;;;;;25.13;15.73;;;;;;;;;;5050780;28;20198;-62
2022/08/27 01:54:01;;;;;;;22.98;14.70;;;;;;;;;;5052049;28;20021;-63
2022/08/27 01:56:27;;;;;;;19.67;15.43;;;;;;;;;;5051817;28;20086;-62
2022/08/27 01:58:53;;;;;;;25.70;16.45;;;;;;;;;;5051037;28;20506;-62
2022/08/27 02:01:19;;;;;;;32.95;19.40;;;;;;;;;;5050237;28;20036;-62
2022/08/27 02:03:47;;;;;;;29.90;17.77;;;;;;;;;;5049793;28;20068;-62
2022/08/27 02:06:13;;;;;;;29.27;17.48;;;;;;;;;;5051668;28;20099;-62
2022/08/27 02:08:39;;;;;;;26.52;17.33;;;;;;;;;;5050734;28;20532;-63
2022/08/27 02:11:07;;;;;;;26.52;17.50;;;;;;;;;;5051384;28;20043;-62
2022/08/27 02:13:33;;;;;;;27.83;16.90;;;;;;;;;;5051357;28;20033;-63
2022/08/27 02:15:59;;;;;;;25.52;16.80;;;;;;;;;;5051320;28;20086;-62
2022/08/27 02:18:25;;;;;;;26.90;18.02;;;;;;;;;;5049360;28;20033;-62
2022/08/27 02:20:51;;;;;;;32.35;19.63;;;;;;;;;;5051311;28;20025;-63
2022/08/27 02:23:17;;;;;;;44.50;21.13;;;;;;;;;;5051518;28;20540;-63
2022/08/27 02:25:46;;;;;;;33.53;18.35;;;;;;;;;;5051167;28;20021;-62
2022/08/27 02:28:12;;;;;;;47.08;22.92;;;;;;;;;;5046986;28;20108;-62
2022/08/27 02:30:38;;;;;;;41.50;20.92;;;;;;;;;;5050945;28;20027;-63
2022/08/27 02:33:04;;;;;;;36.92;17.73;;;;;;;;;;5049009;28;20021;-62
2022/08/27 02:35:31;;;;;;;33.78;18.42;;;;;;;;;;5050791;28;20075;-62
2022/08/27 02:37:58;;;;;;;29.15;17.63;;;;;;;;;;5051335;28;20025;-62
2022/08/27 02:40:24;;;;;;;33.38;18.63;;;;;;;;;;5050914;28;20060;-62
2022/08/27 02:42:50;;;;;;;42.05;21.42;;;;;;;;;;5050945;28;20021;-62
2022/08/27 02:45:17;;;;;;;39.03;20.95;;;;;;;;;;5050914;28;20526;-62
2022/08/27 02:47:43;;;;;;;46.95;22.45;;;;;;;;;;5050504;28;20089;-62
2022/08/27 02:50:10;;;;;;;40.08;19.08;;;;;;;;;;5049399;28;20115;-63
2022/08/27 02:52:36;;;;;;;35.88;19.27;;;;;;;;;;5050991;28;20104;-63
2022/08/27 02:55:02;;;;;;;41.90;20.08;;;;;;;;;;5049735;28;20071;-63
2022/08/27 02:57:30;;;;;;;39.92;21.15;;;;;;;;;;5050940;28;20036;-63
2022/08/27 02:59:56;;;;;;;39.38;20.55;;;;;;;;;;5049700;28;20031;-62
2022/08/27 03:02:22;;;;;;;51.53;20.92;;;;;;;;;;5050196;28;20021;-63
2022/08/27 03:04:48;;;;;;;34.15;19.33;;;;;;;;;;5050970;28;20035;-62
2022/08/27 03:07:14;;;;;;;38.58;18.08;;;;;;;;;;5049420;28;20062;-62
2022/08/27 03:09:40;;;;;;;44.75;21.35;;;;;;;;;;5050527;28;20095;-62
2022/08/27 03:12:06;;;;;;;45.10;21.23;;;;;;;;;;5050647;28;20427;-62
2022/08/27 03:14:32;;;;;;;39.17;19.88;;;;;;;;;;5050997;28;20025;-62
2022/08/27 03:18:16;;;;;;;41.10;19.30;;;;;;;;;;5049653;28;20513;-62
2022/08/27 03:19:44;;;;;;;33.30;19.00;;;;;;;;;;5052163;28;20044;-62
2022/08/27 03:22:11;;;;;;;42.53;20.90;;;;;;;;;;5054598;28;20099;-62
2022/08/27 03:24:39;;;;;;;31.90;17.33;;;;;;;;;;5053263;28;20062;-62
2022/08/27 03:27:05;;;;;;;33.10;18.15;;;;;;;;;;5053297;28;20058;-63
2022/08/27 03:29:33;;;;;;;33.47;18.27;;;;;;;;;;5054748;28;20671;-62
2022/08/27 03:31:59;;;;;;;27.33;18.63;;;;;;;;;;5054339;28;20227;-62
2022/08/27 03:34:25;;;;;;;30.05;18.73;;;;;;;;;;5053612;28;20041;-62
2022/08/27 03:36:51;;;;;;;34.10;19.73;;;;;;;;;;5053808;28;20441;-62
2022/08/27 03:39:17;;;;;;;34.63;22.08;;;;;;;;;;5054352;28;20020;-62
2022/08/27 03:41:43;;;;;;;34.20;20.60;;;;;;;;;;5052450;28;20127;-62
2022/08/27 03:44:10;;;;;;;33.35;19.23;;;;;;;;;;5052608;28;20029;-62
2022/08/27 03:46:36;;;;;;;36.13;20.20;;;;;;;;;;5053087;28;20017;-62
2022/08/27 03:49:02;;;;;;;35.53;19.30;;;;;;;;;;5054174;28;20036;-63
2022/08/27 03:51:28;;;;;;;30.98;20.80;;;;;;;;;;5053470;28;20044;-63
2022/08/27 03:53:54;;;;;;;35.40;20.55;;;;;;;;;;5053319;28;20040;-63
2022/08/27 03:56:20;;;;;;;32.33;19.70;;;;;;;;;;5052622;28;20029;-62
2022/08/27 03:58:46;;;;;;;31.02;21.63;;;;;;;;;;5052679;28;20032;-62
2022/08/27 04:01:12;;;;;;;44.72;22.48;;;;;;;;;;5053595;28;20021;-63
2022/08/27 04:03:38;;;;;;;29.55;19.60;;;;;;;;;;5054008;28;20082;-62
2022/08/27 04:06:04;;;;;;;41.30;22.40;;;;;;;;;;5053246;28;20444;-62
2022/08/27 04:08:30;;;;;;;35.47;19.95;;;;;;;;;;5053017;28;20099;-62
2022/08/27 04:10:56;;;;;;;38.53;23.40;;;;;;;;;;5053410;28;20025;-62
2022/08/27 04:13:23;;;;;;;34.65;20.30;;;;;;;;;;5045060;28;20132;-62
2022/08/27 04:15:50;;;;;;;29.20;19.48;;;;;;;;;;5053285;28;20056;-62
2022/08/27 04:18:17;;;;;;;34.97;22.95;;;;;;;;;;5053219;28;20498;-62
2022/08/27 04:20:47;;;;;;;35.65;20.13;;;;;;;;;;5052299;28;20052;-62
2022/08/27 04:23:13;;;;;;;39.38;21.85;;;;;;;;;;5053502;28;20032;-62
2022/08/27 04:25:39;;;;;;;35.80;21.83;;;;;;;;;;5050416;28;20018;-62
2022/08/27 04:28:06;;;;;;;37.38;22.13;;;;;;;;;;5050381;28;20032;-62
2022/08/27 04:30:32;;;;;;;44.35;23.30;;;;;;;;;;5050328;28;20033;-62
2022/08/27 04:32:58;;;;;;;34.47;21.00;;;;;;;;;;5053389;28;20055;-62
2022/08/27 04:35:24;;;;;;;48.28;25.38;;;;;;;;;;5051447;28;20066;-62
2022/08/27 04:37:50;;;;;;;36.17;20.92;;;;;;;;;;5052968;28;20028;-62
2022/08/27 04:40:16;;;;;;;40.53;22.77;;;;;;;;;;5050942;28;20033;-62
2022/08/27 04:42:43;;;;;;;46.72;23.85;;;;;;;;;;5053295;28;20106;-62
2022/08/27 04:45:09;;;;;;;51.90;25.55;;;;;;;;;;5053226;28;20338;-62
2022/08/27 04:47:35;;;;;;;41.88;24.50;;;;;;;;;;5050097;28;20504;-62
2022/08/27 04:50:01;;;;;;;42.35;24.13;;;;;;;;;;5051858;28;20611;-62
2022/08/27 04:52:27;;;;;;;55.25;25.42;;;;;;;;;;5052079;28;20098;-62
2022/08/27 04:54:54;;;;;;;39.70;22.48;;;;;;;;;;5051776;28;20064;-62
2022/08/27 04:57:20;;;;;;;38.13;21.35;;;;;;;;;;5051984;28;20059;-62
2022/08/27 04:59:46;;;;;;;47.95;23.92;;;;;;;;;;5052302;28;20110;-62
2022/08/27 05:02:12;;;;;;;39.78;22.73;;;;;;;;;;5051120;28;20021;-63
2022/08/27 05:04:39;;;;;;;33.78;20.73;;;;;;;;;;5052488;28;20029;-63
2022/08/27 05:07:06;;;;;;;41.40;22.17;;;;;;;;;;5047974;28;20029;-63
2022/08/27 05:09:33;;;;;;;35.10;21.02;;;;;;;;;;5051643;28;20051;-62
2022/08/27 05:11:59;;;;;;;37.50;21.10;;;;;;;;;;5052180;28;20426;-62
2022/08/27 05:14:28;;;;;;;43.58;24.70;;;;;;;;;;5051016;28;20074;-62
2022/08/27 05:16:55;;;;;;;36.30;20.77;;;;;;;;;;5052005;28;20107;-62
2022/08/27 05:19:21;;;;;;;48.58;24.35;;;;;;;;;;5049843;28;20029;-62
2022/08/27 05:21:48;;;;;;;46.05;24.20;;;;;;;;;;5052212;28;20576;-62
2022/08/27 05:24:14;;;;;;;44.08;22.88;;;;;;;;;;5051785;28;20025;-62
2022/08/27 05:26:40;;;;;;;47.28;23.42;;;;;;;;;;5051054;28;20029;-62
2022/08/27 05:29:06;;;;;;;35.60;20.35;;;;;;;;;;5052415;28;20033;-62
2022/08/27 05:31:32;;;;;;;43.65;24.02;;;;;;;;;;5051637;28;20037;-62
2022/08/27 05:33:59;;;;;;;31.40;19.33;;;;;;;;;;5041307;28;20040;-62
2022/08/27 05:36:27;;;;;;;37.65;20.17;;;;;;;;;;5050504;28;20480;-62
2022/08/27 05:38:54;;;;;;;30.23;19.00;;;;;;;;;;5052267;28;20124;-62
2022/08/27 05:41:24;;;;;;;44.10;22.20;;;;;;;;;;5050791;28;20052;-62
2022/08/27 05:43:52;;;;;;;36.50;20.45;;;;;;;;;;5051900;28;20472;-62
2022/08/27 05:46:19;;;;;;;27.05;19.00;;;;;;;;;;5050763;28;20082;-62
2022/08/27 05:48:46;;;;;;;29.15;16.88;;;;;;;;;;5051189;28;20024;-62
2022/08/27 05:51:22;;;;;;;29.13;18.42;;;;;;;;;;5048426;28;20037;-62
2022/08/27 05:53:48;;;;;;;30.08;17.08;;;;;;;;;;5051944;28;20033;-62
2022/08/27 05:56:15;;;;;;;29.55;17.65;;;;;;;;;;5051521;28;20151;-62
2022/08/27 06:01:27;;;;;;;26.05;16.55;;;;;;;;;;5051383;28;20032;-62
2022/08/27 06:03:53;;;;;;;33.53;15.13;;;;;;;;;;5051878;28;20029;-62
2022/08/27 06:06:21;;;;;;;25.73;14.63;;;;;;;;;;5050821;28;20068;-62
2022/08/27 06:08:47;;;;;;;23.90;14.63;;;;;;;;;;5051161;28;20087;-62
2022/08/27 06:11:13;;;;;;;19.15;12.40;;;;;;;;;;5049512;28;20147;-63
2022/08/27 06:13:39;;;;;;;17.48;12.48;;;;;;;;;;5041343;28;20025;-62
2022/08/27 06:16:12;;;;;;;17.35;12.35;;;;;;;;;;5051452;28;20037;-62
2022/08/27 06:18:38;;;;;;;24.67;11.93;;;;;;;;;;5046723;28;20044;-63
2022/08/27 06:21:05;;;;;;;16.42;11.50;;;;;;;;;;5044544;28;20473;-62
2022/08/27 06:23:31;;;;;;;17.08;11.25;;;;;;;;;;5048969;28;20415;-62
2022/08/27 06:25:57;;;;;;;18.23;10.32;;;;;;;;;;5049755;28;20029;-63
2022/08/27 06:28:25;;;;;;;20.23;11.27;;;;;;;;;;5046406;28;20044;-62
2022/08/27 06:30:51;;;;;;;17.15;11.38;;;;;;;;;;5048652;28;20052;-62
2022/08/27 06:33:20;;;;;;;20.30;11.65;;;;;;;;;;5046831;28;20064;-63
2022/08/27 06:35:46;;;;;;;13.70;9.85;;;;;;;;;;5045248;28;20035;-62
2022/08/27 06:38:12;;;;;;;15.95;10.93;;;;;;;;;;5049803;28;20024;-61
2022/08/27 06:40:40;;;;;;;16.98;9.82;;;;;;;;;;5050808;28;20116;-62
2022/08/27 06:43:07;;;;;;;17.55;10.10;;;;;;;;;;5046446;28;20025;-62
2022/08/27 06:45:36;;;;;;;17.00;10.13;;;;;;;;;;5050177;28;20111;-62
2022/08/27 06:48:02;;;;;;;18.20;10.05;;;;;;;;;;5051085;28;20023;-62
2022/08/27 06:50:28;;;;;;;13.88;10.35;;;;;;;;;;5049252;28;20070;-61
2022/08/27 06:52:54;;;;;;;14.25;10.00;;;;;;;;;;5050270;28;20119;-62
2022/08/27 06:55:20;;;;;;;14.02;9.52;;;;;;;;;;5046186;28;20026;-62
2022/08/27 06:57:46;;;;;;;14.77;9.93;;;;;;;;;;5053501;28;20472;-61
2022/08/27 07:00:12;;;;;;;20.33;10.88;;;;;;;;;;5046722;28;20381;-62
2022/08/27 07:02:38;;;;;;;18.45;11.18;;;;;;;;;;5052280;28;20128;-62
2022/08/27 07:05:06;;;;;;;15.07;10.73;;;;;;;;;;5053939;28;20423;-62
2022/08/27 07:07:33;;;;;;;14.52;10.20;;;;;;;;;;5051160;28;20083;-62
2022/08/27 07:09:59;;;;;;;17.83;10.80;;;;;;;;;;5052361;28;20075;-62
2022/08/27 07:12:25;;;;;;;18.95;9.88;;;;;;;;;;5050306;28;20243;-62
2022/08/27 07:14:51;;;;;;;16.48;9.68;;;;;;;;;;5044123;28;20022;-62
2022/08/27 07:17:17;;;;;;;16.13;10.23;;;;;;;;;;5049501;28;20036;-62
2022/08/27 07:19:44;;;;;;;16.83;12.38;;;;;;;;;;5049381;28;20488;-62
2022/08/27 07:22:11;;;;;;;16.25;10.68;;;;;;;;;;5050428;28;20460;-61
2022/08/27 07:24:37;;;;;;;18.70;11.15;;;;;;;;;;5051625;28;20036;-61
2022/08/27 07:27:03;;;;;;;14.77;10.05;;;;;;;;;;5049207;28;20365;-61
2022/08/27 07:29:29;;;;;;;15.82;10.05;;;;;;;;;;5052736;28;20028;-61
2022/08/27 07:31:55;;;;;;;15.57;10.30;;;;;;;;;;5046366;28;20492;-62
2022/08/27 07:34:21;;;;;;;13.68;9.77;;;;;;;;;;5054411;28;20033;-62
2022/08/27 07:36:47;;;;;;;15.77;10.50;;;;;;;;;;5050936;28;20040;-62
2022/08/27 07:39:15;;;;;;;24.17;13.48;;;;;;;;;;5053197;28;20468;-63
2022/08/27 07:44:26;;;;;;;13.38;10.43;;;;;;;;;;5053410;28;20120;-62
2022/08/27 07:46:57;;;;;;;19.88;10.95;;;;;;;;;;5050927;28;20032;-61
2022/08/27 07:49:24;;;;;;;20.55;10.38;;;;;;;;;;5047062;28;20033;-62
2022/08/27 07:51:51;;;;;;;17.38;10.05;;;;;;;;;;5050643;28;20025;-62
2022/08/27 07:54:17;;;;;;;19.80;10.73;;;;;;;;;;5051660;28;20021;-62
2022/08/27 07:56:43;;;;;;;16.67;9.80;;;;;;;;;;5050491;28;20039;-62
2022/08/27 07:59:09;;;;;;;19.00;11.38;;;;;;;;;;5050985;28;20032;-62
2022/08/27 08:01:35;;;;;;;14.68;10.10;;;;;;;;;;5048734;28;20033;-62
2022/08/27 08:04:01;;;;;;;18.30;10.38;;;;;;;;;;5053102;28;20578;-62
2022/08/27 08:06:27;;;;;;;12.93;9.90;;;;;;;;;;5053081;28;20029;-62
2022/08/27 08:08:53;;;;;;;18.05;10.45;;;;;;;;;;5053377;28;20049;-62
2022/08/27 08:11:19;;;;;;;11.35;9.05;;;;;;;;;;5053497;28;20465;-62
2022/08/27 08:13:46;;;;;;;15.32;9.35;;;;;;;;;;5050126;28;20035;-62
2022/08/27 08:16:12;;;;;;;16.63;9.80;;;;;;;;;;5052358;28;20067;-62
2022/08/27 08:18:38;;;;;;;16.50;9.75;;;;;;;;;;5051925;28;20051;-62
2022/08/27 08:21:06;;;;;;;16.77;10.30;;;;;;;;;;5053357;28;20496;-62
2022/08/27 08:23:32;;;;;;;14.43;10.07;;;;;;;;;;5049617;28;20127;-62
2022/08/27 08:25:58;;;;;;;14.82;10.70;;;;;;;;;;5053378;28;20053;-62
2022/08/27 08:28:26;;;;;;;17.35;10.00;;;;;;;;;;5053184;28;20025;-61
2022/08/27 08:30:53;;;;;;;12.77;9.80;;;;;;;;;;5049627;28;20061;-62
2022/08/27 08:33:19;;;;;;;16.15;10.38;;;;;;;;;;5053809;28;20060;-62
2022/08/27 08:35:45;;;;;;;18.45;10.80;;;;;;;;;;5045234;28;20037;-62
2022/08/27 08:38:11;;;;;;;17.25;11.40;;;;;;;;;;5052897;28;20040;-62
2022/08/27 08:40:55;;;;;;;16.67;11.70;;;;;;;;;;5043391;28;20021;-62
2022/08/27 08:43:26;;;;;;;23.63;11.68;;;;;;;;;;5053260;28;20035;-62
2022/08/27 08:45:53;;;;;;;20.10;12.02;;;;;;;;;;5053044;28;20390;-62
2022/08/27 08:48:20;;;;;;;19.95;13.00;;;;;;;;;;5051603;28;20099;-62
2022/08/27 08:50:49;;;;;;;20.75;12.43;;;;;;;;;;5047585;28;20032;-62
2022/08/27 08:53:35;;;;;;;19.08;11.35;;;;;;;;;;5051848;28;20029;-62
2022/08/27 08:56:04;;;;;;;18.77;10.55;;;;;;;;;;5051536;28;20025;-62
2022/08/27 08:58:45;;;;;;;15.50;11.40;;;;;;;;;;5039483;28;20110;-62
2022/08/27 09:01:13;;;;;;;19.20;10.45;;;;;;;;;;5047623;28;20472;-62
2022/08/27 09:03:40;;;;;;;15.98;11.00;;;;;;;;;;5044606;28;20028;-62
2022/08/27 09:06:08;;;;;;;18.35;12.23;;;;;;;;;;5040004;28;20017;-62
2022/08/27 09:08:36;;;;;;;20.35;12.32;;;;;;;;;;5038879;28;20516;-62
2022/08/27 09:11:08;;;;;;;14.55;11.20;;;;;;;;;;5034711;28;20040;-62
2022/08/27 09:13:37;;;;;;;22.25;12.77;;;;;;;;;;5037999;28;20021;-63
2022/08/27 09:16:04;;;;;;;18.73;11.13;;;;;;;;;;5047463;28;20021;-62
2022/08/27 09:18:33;;;;;;;16.23;12.52;;;;;;;;;;5037769;28;20448;-62
2022/08/27 09:21:04;;;;;;;18.73;13.40;;;;;;;;;;5037979;28;20025;-62
2022/08/27 09:23:37;;;;;;;15.57;10.93;;;;;;;;;;5044403;28;20022;-63
2022/08/27 09:26:03;;;;;;;16.92;11.93;;;;;;;;;;5038544;28;20029;-62
2022/08/27 09:31:19;;;;;;;24.08;13.40;;;;;;;;;;5044879;28;20063;-63
2022/08/27 09:33:45;;;;;;;20.92;12.98;;;;;;;;;;5039531;28;20399;-62
2022/08/27 09:36:14;;;;;;;16.38;12.50;;;;;;;;;;5048060;28;20033;-62
2022/08/27 09:38:49;;;;;;;17.30;11.80;;;;;;;;;;5052080;28;20036;-63
2022/08/27 09:41:19;;;;;;;16.10;12.20;;;;;;;;;;5049900;28;20040;-62
2022/08/27 09:43:56;;;;;;;22.13;13.80;;;;;;;;;;5045938;28;20500;-62
2022/08/27 09:46:24;;;;;;;18.10;11.95;;;;;;;;;;5051953;28;20036;-63
2022/08/27 09:48:50;;;;;;;18.88;12.82;;;;;;;;;;5046392;28;20664;-62
2022/08/27 09:51:19;;;;;;;19.45;12.35;;;;;;;;;;5048285;28;20090;-62
2022/08/27 09:53:49;;;;;;;16.85;11.48;;;;;;;;;;5050120;28;20108;-62
2022/08/27 09:56:21;;;;;;;19.25;12.20;;;;;;;;;;5044127;28;20039;-63
2022/08/27 09:58:50;;;;;;;17.15;12.38;;;;;;;;;;5049818;28;20029;-63
2022/08/27 10:01:16;;;;;;;19.13;12.45;;;;;;;;;;5047629;28;20476;-64
2022/08/27 10:03:42;;;;;;;21.20;12.20;;;;;;;;;;5043703;28;20044;-63
2022/08/27 10:06:09;;;;;;;17.00;11.45;;;;;;;;;;5047253;28;20025;-64
2022/08/27 10:08:37;;;;;;;20.27;10.90;;;;;;;;;;5045678;28;20041;-64
2022/08/27 10:11:06;;;;;;;16.67;11.07;;;;;;;;;;5049903;28;20330;-64
2022/08/27 10:13:47;;;;;;;15.95;10.25;;;;;;;;;;5045587;28;20029;-63
2022/08/27 10:16:13;;;;;;;14.93;9.73;;;;;;;;;;5043449;28;20044;-63
2022/08/27 10:18:51;;;;;;;15.98;9.95;;;;;;;;;;5046593;28;20412;-64
2022/08/27 10:21:20;;;;;;;14.68;9.02;;;;;;;;;;5050874;28;20032;-64
2022/08/27 10:24:02;;;;;;;18.33;8.93;;;;;;;;;;5050690;28;20385;-63
2022/08/27 10:26:43;;;;;;;17.92;8.45;;;;;;;;;;5050097;28;20078;-64
2022/08/27 10:29:14;;;;;;;12.57;7.88;;;;;;;;;;5045937;28;20029;-64
2022/08/27 10:31:59;;;;;;;16.70;8.02;;;;;;;;;;5041923;28;20082;-62
2022/08/27 10:34:31;;;;;;;12.57;8.55;;;;;;;;;;5041579;28;20059;-63
2022/08/27 10:37:30;;;;;;;15.90;8.88;;;;;;;;;;5036520;28;20124;-63
2022/08/27 10:40:09;;;;;;;11.25;7.72;;;;;;;;;;5014846;28;20072;-63
2022/08/27 10:42:47;;;;;;;11.43;7.15;;;;;;;;;;5050138;28;20068;-62
2022/08/27 10:45:22;;;;;;;11.15;6.47;;;;;;;;;;5047687;28;20036;-63
2022/08/27 10:47:58;;;;;;;11.05;6.80;;;;;;;;;;5046238;28;20026;-62
2022/08/27 10:50:27;;;;;;;9.27;6.20;;;;;;;;;;5050776;28;20025;-62
2022/08/27 10:53:05;;;;;;;16.17;6.60;;;;;;;;;;5051276;28;20029;-62
2022/08/27 10:55:33;;;;;;;11.98;6.55;;;;;;;;;;5044585;28;20017;-62
2022/08/27 10:58:01;;;;;;;12.65;6.07;;;;;;;;;;5048133;28;20110;-63
2022/08/27 11:00:34;;;;;;;12.48;6.57;;;;;;;;;;5040007;28;20025;-62
2022/08/27 11:03:06;;;;;;;11.77;6.85;;;;;;;;;;5039122;28;20032;-62
2022/08/27 11:05:38;;;;;;;11.43;6.43;;;;;;;;;;5046726;28;20025;-62
2022/08/27 11:08:11;;;;;;;10.43;6.00;;;;;;;;;;5049058;28;20041;-62
2022/08/27 11:10:41;;;;;;;10.80;5.90;;;;;;;;;;5046310;28;20115;-62
2022/08/27 11:13:13;;;;;;;11.02;6.15;;;;;;;;;;5047361;28;20072;-62
2022/08/27 11:15:42;;;;;;;11.53;6.47;;;;;;;;;;5041039;28;20059;-62
2022/08/27 11:18:15;;;;;;;12.23;6.38;;;;;;;;;;5044330;28;20386;-62
2022/08/27 11:20:59;;;;;;;9.93;5.90;;;;;;;;;;5043907;28;20078;-62
2022/08/27 11:23:45;;;;;;;9.90;6.00;;;;;;;;;;5047123;28;20024;-62
2022/08/27 11:26:12;;;;;;;10.00;6.68;;;;;;;;;;5040692;28;20020;-62
2022/08/27 11:28:40;;;;;;;11.90;6.85;;;;;;;;;;5044062;28;20021;-62
2022/08/27 11:31:12;;;;;;;9.65;6.53;;;;;;;;;;5039388;28;20025;-62
2022/08/27 11:33:52;;;;;;;11.10;6.22;;;;;;;;;;5043948;28;20033;-62
2022/08/27 11:36:36;;;;;;;10.48;6.93;;;;;;;;;;5042457;28;20063;-62
2022/08/27 11:39:16;;;;;;;10.30;6.18;;;;;;;;;;5043824;28;20029;-62
2022/08/27 11:42:00;;;;;;;8.95;5.40;;;;;;;;;;5053950;28;20028;-62
2022/08/27 11:44:27;;;;;;;12.50;6.28;;;;;;;;;;5053796;28;20104;-62
2022/08/27 11:46:55;;;;;;;11.50;5.78;;;;;;;;;;5054071;28;20033;-62
2022/08/27 11:49:23;;;;;;;11.40;5.90;;;;;;;;;;5054556;28;20388;-62
2022/08/27 11:51:56;;;;;;;11.98;5.47;;;;;;;;;;5052024;28;20396;-62
2022/08/27 11:54:32;;;;;;;8.25;5.97;;;;;;;;;;5054442;28;20028;-62
2022/08/27 11:56:58;;;;;;;14.18;6.20;;;;;;;;;;5052810;28;20079;-62
2022/08/27 11:59:27;;;;;;;12.15;5.13;;;;;;;;;;5054151;28;20388;-62
2022/08/27 12:01:54;;;;;;;7.45;5.03;;;;;;;;;;5050422;28;20653;-62
2022/08/27 12:04:23;;;;;;;8.95;5.00;;;;;;;;;;5053010;28;20060;-62
2022/08/27 12:07:00;;;;;;;8.00;4.63;;;;;;;;;;5054151;28;20508;-63
2022/08/27 12:09:26;;;;;;;8.55;5.15;;;;;;;;;;5053838;28;20048;-63
2022/08/27 12:12:09;;;;;;;12.63;4.28;;;;;;;;;;5051801;28;20112;-62
2022/08/27 12:14:40;;;;;;;7.00;4.25;;;;;;;;;;5053828;28;20246;-62
2022/08/27 12:17:11;;;;;;;7.97;3.78;;;;;;;;;;5053942;28;20383;-62
2022/08/27 12:19:45;;;;;;;5.35;3.42;;;;;;;;;;5052155;28;20043;-63
2022/08/27 12:22:17;;;;;;;6.13;3.25;;;;;;;;;;5053680;28;20366;-63
2022/08/27 12:24:43;;;;;;;6.03;3.47;;;;;;;;;;5053925;28;20017;-63
2022/08/27 12:27:24;;;;;;;8.30;3.60;;;;;;;;;;5053605;28;20492;-63
2022/08/27 12:29:55;;;;;;;6.75;3.80;;;;;;;;;;5053148;28;20392;-63
2022/08/27 12:32:25;;;;;;;5.85;3.85;;;;;;;;;;5046609;28;20029;-63
2022/08/27 12:34:54;;;;;;;7.63;3.30;;;;;;;;;;5053777;28;20017;-63
2022/08/27 12:37:24;;;;;;;6.82;3.78;;;;;;;;;;5051848;28;20029;-63
2022/08/27 12:39:50;;;;;;;11.40;3.60;;;;;;;;;;5052772;28;20112;-63
2022/08/27 12:42:18;;;;;;;6.75;3.40;;;;;;;;;;5053125;28;20032;-62
2022/08/27 12:44:44;;;;;;;8.68;3.20;;;;;;;;;;5049903;28;20108;-63
2022/08/27 12:47:12;;;;;;;6.25;3.08;;;;;;;;;;5053307;28;20061;-63
2022/08/27 12:49:58;;;;;;;5.35;3.13;;;;;;;;;;5053168;28;20029;-63
2022/08/27 12:52:32;;;;;;;6.78;2.78;;;;;;;;;;5051955;28;20035;-63
2022/08/27 12:55:16;;;;;;;4.68;2.63;;;;;;;;;;5053337;28;20029;-63
2022/08/27 12:57:42;;;;;;;9.18;2.95;;;;;;;;;;5052870;28;20021;-63
2022/08/27 13:00:13;;;;;;;7.47;2.92;;;;;;;;;;5052738;28;20029;-63
2022/08/27 13:02:49;;;;;;;9.73;3.40;;;;;;;;;;5049868;28;20017;-63
2022/08/27 13:05:19;;;;;;;3.80;2.92;;;;;;;;;;5053251;28;20036;-63
2022/08/27 13:07:46;;;;;;;7.60;2.63;;;;;;;;;;5052950;28;20036;-63
2022/08/27 13:10:15;;;;;;;6.07;3.20;;;;;;;;;;5052426;28;20041;-63
2022/08/27 13:12:41;;;;;;;6.40;3.53;;;;;;;;;;5052401;28;20040;-63
2022/08/27 13:15:09;;;;;;;6.45;3.05;;;;;;;;;;5052320;28;20035;-63
2022/08/27 13:17:42;;;;;;;9.10;3.90;;;;;;;;;;5051020;28;20126;-63
2022/08/27 13:20:17;;;;;;;4.68;2.95;;;;;;;;;;5052167;28;20033;-63
2022/08/27 13:22:43;;;;;;;6.63;3.42;;;;;;;;;;5052341;28;20021;-63
2022/08/27 13:25:27;;;;;;;10.27;3.30;;;;;;;;;;5052927;28;20021;-63
2022/08/27 13:27:55;;;;;;;9.07;3.67;;;;;;;;;;5042370;28;20604;-64
2022/08/27 13:30:22;;;;;;;8.57;3.72;;;;;;;;;;5052219;28;20099;-63
2022/08/27 13:32:49;;;;;;;7.57;2.97;;;;;;;;;;5052216;28;20028;-63
2022/08/27 13:35:15;;;;;;;7.35;2.92;;;;;;;;;;5052553;28;20032;-63
2022/08/27 13:37:45;;;;;;;9.07;3.55;;;;;;;;;;5051175;28;20334;-63
2022/08/27 13:40:23;;;;;;;8.30;3.60;;;;;;;;;;5048433;28;20705;-63
2022/08/27 13:42:50;;;;;;;5.75;3.33;;;;;;;;;;5051126;28;20487;-63
2022/08/27 13:45:16;;;;;;;6.32;3.60;;;;;;;;;;5048877;28;20817;-63
2022/08/27 13:47:45;;;;;;;5.40;3.17;;;;;;;;;;5050261;28;20048;-63
2022/08/27 13:50:17;;;;;;;6.28;3.83;;;;;;;;;;5040321;28;20053;-63
2022/08/27 13:55:30;;;;;;;5.82;3.35;;;;;;;;;;5016589;28;20500;-63
2022/08/27 13:57:56;;;;;;;6.45;3.15;;;;;;;;;;5045965;28;20119;-63
2022/08/27 14:00:30;;;;;;;4.95;3.20;;;;;;;;;;5048373;28;20433;-64
2022/08/27 14:02:57;;;;;;;6.25;3.40;;;;;;;;;;5042399;28;20064;-63
2022/08/27 14:05:23;;;;;;;13.63;3.50;;;;;;;;;;5049196;28;20635;-63
2022/08/27 14:07:51;;;;;;;4.90;2.95;;;;;;;;;;5050226;28;20033;-63
2022/08/27 14:10:17;;;;;;;8.52;3.45;;;;;;;;;;5043091;28;20505;-63
2022/08/27 14:12:43;;;;;;;5.57;3.78;;;;;;;;;;5042431;28;20033;-63
2022/08/27 14:15:24;;;;;;;5.38;3.80;;;;;;;;;;5044137;28;20036;-63
2022/08/27 14:17:50;;;;;;;7.68;3.90;;;;;;;;;;5049614;28;20052;-63
2022/08/27 14:20:17;;;;;;;9.43;4.22;;;;;;;;;;5050333;28;20040;-63
2022/08/27 14:22:43;;;;;;;8.93;3.83;;;;;;;;;;5051537;28;20456;-62
2022/08/27 14:25:10;;;;;;;7.47;3.78;;;;;;;;;;5050566;28;20033;-63
2022/08/27 14:27:38;;;;;;;6.88;4.10;;;;;;;;;;5050565;28;20047;-63
2022/08/27 14:30:05;;;;;;;7.40;4.60;;;;;;;;;;5048223;28;20151;-63
2022/08/27 14:32:32;;;;;;;6.25;3.83;;;;;;;;;;5038877;28;20463;-65
2022/08/27 14:34:58;;;;;;;10.13;3.88;;;;;;;;;;5048956;28;20029;-64
2022/08/27 14:37:24;;;;;;;10.00;4.03;;;;;;;;;;5049888;28;20061;-65
2022/08/27 14:39:50;;;;;;;8.80;4.55;;;;;;;;;;5048369;28;20599;-65
2022/08/27 14:42:17;;;;;;;6.15;4.07;;;;;;;;;;5046756;28;20047;-65